Airfield :
LOGIN :

Register | Disclaimer

   EN    FR    IT 

 










Legend :    VFR   Marginal VFR   IFR   Intensive IFR   Very Intensive IFR
Visi :
Ceiling :
>= 8 km
>= 3000ft
5 to 8 km
1000 to 3000 ft
1500m to 5 km
500 to 1000 ft
800 to 1500m
200 to 500 ft
< 800m
< 200 ft
Symbols :   Thunderstorms  Fog  Heavy snow  Heavy precipitations  Wind > 20 kt
SIGMETs :     Misc.  Thunderstorms  Icing  Turbulence  Mountain Waves  Volcanic Ashes






- Airport Elevation : 25 ft
- IATA code : QCY


EGXC - RAF Coningsby

CURRENT METAR :
  • 170450Z 28001KT 4500 BR SCT005 BKN018 07/07 Q1008 RMK YLO1

EXPIRED METARs :
  • 170350Z 24003KT 2500 BR SCT003 BKN020 07/07 Q1008 RMK YLO2
  • 170250Z 19002KT 2500 BR SCT004 BKN024 07/07 Q1007 RMK YLO2
  • 170213Z 23004KT 2000 BR SCT005 BKN024 07/07 Q1008 RMK YLO2

TAF AMD TAF EGXC
Valid from the 17 at 04:00 until the 17 at 21:00 UTC


170350Z 1704/1721 22003KT 7000 BR BKN010
TEMPO 1704/1710 4000
PROB40
TEMPO 1704/1709 1500 BKN004
TEMPO 1709/1714 SCT006
BECMG 1710/1713 9999 NSW
PROB40
TEMPO 1714/1719 7000 SHRA FEW010 BKN030
BECMG 1719/1721 FEW010 BKN030



MET'MAP, your aeronautical weather chart ! - Copyright ORBIFLY December 2007 - Disclaimer

ORBIFLY MET'MAP TEAM :

Programming & Development : Alexandra Zaïnal
Concept & Development : Baudouin d'Aumeries
Co-Development & Prog : Marc-Olivier Méhu
Technical & hardware support : Manuel Goepfert

Contact : metmap@orbifly.com




SOURCES & CREDITS :

   NOAA